Time;durP1;ratioP1;P1;durP2;ratioP2;P2;SDS_P1;SDS_P2;PMS_P1;PMS_P2;Temp;Humidity;BMP_temperature;BMP_pressure;BME280_temperature;BME280_humidity;BME280_pressure;Samples;Min_cycle;Max_cycle;Signal;HPM_P1;HPM_P2
2023/10/04 00:00:15;;;;;;;2.03;0.57;;;;;;;;;;5073884;28;20055;-60
2023/10/04 00:02:54;;;;;;;5.00;0.70;;;;;;;;;;5089741;28;20032;-61
2023/10/04 00:05:23;;;;;;;0.20;0.20;;;;;;;;;;5096148;28;20514;-62
2023/10/04 00:07:50;;;;;;;0.10;0.10;;;;;;;;;;5095955;28;20049;-60
2023/10/04 00:10:18;;;;;;;1.13;0.38;;;;;;;;;;5096162;28;20024;-60
2023/10/04 00:12:45;;;;;;;0.55;0.35;;;;;;;;;;5075233;28;20538;-60
2023/10/04 00:15:15;;;;;;;0.15;0.10;;;;;;;;;;5070666;28;20025;-61
2023/10/04 00:17:42;;;;;;;0.00;0.00;;;;;;;;;;5074671;28;20028;-60
2023/10/04 00:20:14;;;;;;;0.38;0.30;;;;;;;;;;5090495;28;20024;-60
2023/10/04 00:22:42;;;;;;;0.73;0.30;;;;;;;;;;5090884;28;20021;-60
2023/10/04 00:25:11;;;;;;;0.25;0.20;;;;;;;;;;5094535;28;20031;-60
2023/10/04 00:27:41;;;;;;;0.00;0.00;;;;;;;;;;5095369;28;20043;-60
2023/10/04 00:30:16;;;;;;;0.00;0.00;;;;;;;;;;5095775;28;20023;-60
2023/10/04 00:32:44;;;;;;;1.05;0.50;;;;;;;;;;5095599;28;20429;-60
2023/10/04 00:35:17;;;;;;;0.65;0.50;;;;;;;;;;5093651;28;20081;-60
2023/10/04 00:37:44;;;;;;;0.43;0.40;;;;;;;;;;5089772;28;20028;-60
2023/10/04 00:40:18;;;;;;;0.52;0.43;;;;;;;;;;5090240;28;20024;-60
2023/10/04 00:42:49;;;;;;;0.40;0.40;;;;;;;;;;5090077;28;20055;-61
2023/10/04 00:45:17;;;;;;;0.10;0.10;;;;;;;;;;5091306;28;20531;-60
2023/10/04 00:47:50;;;;;;;4.78;0.75;;;;;;;;;;5094980;28;20129;-60
2023/10/04 00:50:26;;;;;;;2.83;0.43;;;;;;;;;;5094130;28;20032;-60
2023/10/04 00:52:57;;;;;;;1.15;0.40;;;;;;;;;;5095129;28;20115;-60
2023/10/04 00:55:24;;;;;;;0.10;0.10;;;;;;;;;;5095163;28;20085;-60
2023/10/04 00:57:54;;;;;;;2.35;0.88;;;;;;;;;;5092589;28;20031;-61
2023/10/04 01:00:21;;;;;;;0.32;0.20;;;;;;;;;;5088497;28;20038;-60
2023/10/04 01:02:48;;;;;;;0.30;0.25;;;;;;;;;;5089628;28;20016;-61
2023/10/04 01:05:16;;;;;;;0.40;0.25;;;;;;;;;;5089681;28;20119;-60
2023/10/04 01:07:44;;;;;;;0.73;0.43;;;;;;;;;;5090568;28;20028;-60
2023/10/04 01:10:15;;;;;;;0.25;0.25;;;;;;;;;;5094554;28;20107;-61
2023/10/04 01:12:46;;;;;;;0.63;0.38;;;;;;;;;;5094725;28;20111;-60
2023/10/04 01:15:29;;;;;;;0.20;0.20;;;;;;;;;;5094567;28;20056;-60
2023/10/04 01:18:15;;;;;;;0.20;0.20;;;;;;;;;;5094894;28;20436;-60
2023/10/04 01:20:41;;;;;;;0.40;0.20;;;;;;;;;;5091795;28;20406;-60
2023/10/04 01:23:10;;;;;;;2.80;0.50;;;;;;;;;;5089572;28;20028;-61
2023/10/04 01:25:42;;;;;;;2.65;0.28;;;;;;;;;;5089398;28;20036;-61
2023/10/04 01:28:13;;;;;;;0.00;0.00;;;;;;;;;;5089479;28;20024;-60
2023/10/04 01:30:40;;;;;;;0.40;0.30;;;;;;;;;;5090974;28;20109;-60
2023/10/04 01:33:10;;;;;;;0.20;0.20;;;;;;;;;;5094154;28;20034;-60
2023/10/04 01:35:38;;;;;;;2.20;0.70;;;;;;;;;;5090663;28;22036;-61
2023/10/04 01:38:07;;;;;;;2.72;0.88;;;;;;;;;;5074065;28;20028;-60
2023/10/04 01:40:35;;;;;;;2.72;0.77;;;;;;;;;;5077194;28;20082;-60
2023/10/04 01:43:38;;;;;;;0.10;0.10;;;;;;;;;;5091932;28;20239;-60
2023/10/04 01:45:59;;;;;;;0.90;0.50;;;;;;;;;;5086582;28;20035;-60
2023/10/04 01:48:26;;;;;;;0.28;0.20;;;;;;;;;;5089001;28;20020;-60
2023/10/04 01:50:53;;;;;;;0.57;0.28;;;;;;;;;;5088651;28;20032;-60
2023/10/04 01:53:21;;;;;;;1.10;0.70;;;;;;;;;;5090961;28;20382;-61
2023/10/04 01:55:47;;;;;;;1.02;0.60;;;;;;;;;;5093644;28;20137;-60
2023/10/04 01:58:15;;;;;;;0.15;0.15;;;;;;;;;;5093918;28;20028;-61
2023/10/04 02:00:42;;;;;;;0.87;0.53;;;;;;;;;;5093763;28;20024;-60
2023/10/04 02:03:09;;;;;;;0.77;0.52;;;;;;;;;;5093965;28;20028;-60
2023/10/04 02:05:40;;;;;;;0.73;0.60;;;;;;;;;;5091694;28;20024;-60
2023/10/04 02:08:09;;;;;;;1.15;0.38;;;;;;;;;;5088531;28;20098;-60
2023/10/04 02:10:36;;;;;;;13.37;0.57;;;;;;;;;;5088457;28;20497;-60
2023/10/04 02:13:14;;;;;;;0.50;0.40;;;;;;;;;;5087540;28;20149;-60
2023/10/04 02:15:47;;;;;;;1.17;0.97;;;;;;;;;;5090287;28;20065;-60
2023/10/04 02:18:15;;;;;;;1.33;0.60;;;;;;;;;;5093750;28;20137;-60
2023/10/04 02:20:46;;;;;;;0.77;0.57;;;;;;;;;;5093647;28;20032;-60
2023/10/04 02:23:13;;;;;;;1.20;0.80;;;;;;;;;;5092590;28;20081;-60
2023/10/04 02:25:40;;;;;;;5.77;0.87;;;;;;;;;;5093566;28;20031;-60
2023/10/04 02:28:11;;;;;;;1.10;0.50;;;;;;;;;;5091486;28;20025;-60
2023/10/04 02:30:38;;;;;;;3.23;1.20;;;;;;;;;;5088037;28;20032;-60
2023/10/04 02:33:13;;;;;;;1.83;0.73;;;;;;;;;;5087955;28;20034;-60
2023/10/04 02:35:44;;;;;;;0.60;0.50;;;;;;;;;;5088013;28;20077;-61
2023/10/04 02:38:26;;;;;;;0.50;0.50;;;;;;;;;;5089457;28;20089;-61
2023/10/04 02:40:53;;;;;;;2.03;0.80;;;;;;;;;;5092901;28;20491;-61
2023/10/04 02:43:25;;;;;;;1.80;1.03;;;;;;;;;;5086683;28;20360;-60
2023/10/04 02:45:52;;;;;;;0.90;0.63;;;;;;;;;;5082135;28;20035;-60
2023/10/04 02:48:24;;;;;;;1.67;0.60;;;;;;;;;;5092438;28;20035;-60
2023/10/04 02:50:51;;;;;;;1.00;0.77;;;;;;;;;;5089012;28;20035;-60
2023/10/04 02:53:20;;;;;;;1.47;0.77;;;;;;;;;;5087737;28;20028;-61
2023/10/04 02:55:47;;;;;;;1.57;0.77;;;;;;;;;;5087142;28;20495;-60
2023/10/04 02:58:16;;;;;;;1.87;1.10;;;;;;;;;;5087344;28;20055;-61
2023/10/04 03:00:44;;;;;;;1.20;0.70;;;;;;;;;;5088733;28;20028;-60
2023/10/04 03:03:19;;;;;;;1.40;0.63;;;;;;;;;;5073377;28;20032;-60
2023/10/04 03:05:46;;;;;;;1.17;0.97;;;;;;;;;;5072906;28;20158;-60
2023/10/04 03:08:13;;;;;;;8.43;2.57;;;;;;;;;;5072848;28;20474;-60
2023/10/04 03:10:40;;;;;;;4.80;2.50;;;;;;;;;;5077193;28;20020;-60
2023/10/04 03:13:16;;;;;;;1.83;1.03;;;;;;;;;;5091073;28;20024;-60
2023/10/04 03:15:47;;;;;;;2.87;1.17;;;;;;;;;;5087676;28;20028;-60
2023/10/04 03:18:17;;;;;;;3.53;1.10;;;;;;;;;;5087391;28;20047;-60
2023/10/04 03:20:54;;;;;;;3.40;1.80;;;;;;;;;;5087807;28;20024;-60
2023/10/04 03:23:23;;;;;;;3.03;1.77;;;;;;;;;;5088487;28;20502;-60
2023/10/04 03:25:52;;;;;;;2.47;1.37;;;;;;;;;;5092569;28;20044;-60
2023/10/04 03:28:20;;;;;;;1.60;0.80;;;;;;;;;;5092796;28;20043;-60
2023/10/04 03:30:47;;;;;;;1.93;0.80;;;;;;;;;;5092759;28;20119;-60
2023/10/04 03:33:16;;;;;;;1.23;0.87;;;;;;;;;;5092627;28;20051;-60
2023/10/04 03:35:44;;;;;;;1.57;1.00;;;;;;;;;;5093781;28;20040;-60
2023/10/04 03:38:11;;;;;;;2.77;0.90;;;;;;;;;;5091303;28;20028;-60
2023/10/04 03:40:39;;;;;;;1.50;0.70;;;;;;;;;;5091615;28;20034;-60
2023/10/04 03:43:06;;;;;;;1.07;0.70;;;;;;;;;;5090944;28;20407;-60
2023/10/04 03:45:33;;;;;;;1.97;1.13;;;;;;;;;;5091967;28;20035;-60
2023/10/04 03:48:00;;;;;;;2.33;1.10;;;;;;;;;;5096723;28;20036;-60
2023/10/04 03:50:28;;;;;;;1.27;0.87;;;;;;;;;;5096653;28;20015;-60
2023/10/04 03:52:58;;;;;;;0.90;0.73;;;;;;;;;;5095960;28;20106;-60
2023/10/04 03:55:28;;;;;;;1.00;0.83;;;;;;;;;;5096276;28;20020;-60
2023/10/04 03:57:55;;;;;;;1.17;0.80;;;;;;;;;;5095462;28;20039;-60
2023/10/04 04:00:23;;;;;;;0.50;0.47;;;;;;;;;;5091110;28;20046;-60
2023/10/04 04:02:51;;;;;;;3.07;0.90;;;;;;;;;;5090895;28;20016;-60
2023/10/04 04:05:22;;;;;;;1.63;0.70;;;;;;;;;;5090858;28;20043;-60
2023/10/04 04:07:49;;;;;;;2.00;0.80;;;;;;;;;;5090641;28;20113;-60
2023/10/04 04:10:18;;;;;;;1.27;0.93;;;;;;;;;;5096263;28;20028;-60
2023/10/04 04:12:46;;;;;;;1.23;0.80;;;;;;;;;;5095804;28;20043;-60
2023/10/04 04:15:14;;;;;;;2.10;1.00;;;;;;;;;;5096094;28;20111;-60
2023/10/04 04:17:41;;;;;;;5.23;1.53;;;;;;;;;;5095764;28;20112;-61
2023/10/04 04:20:14;;;;;;;3.83;0.77;;;;;;;;;;5095898;28;20027;-60
2023/10/04 04:22:53;;;;;;;1.10;0.63;;;;;;;;;;5090518;28;20028;-60
2023/10/04 04:25:23;;;;;;;1.60;1.03;;;;;;;;;;5090910;28;20040;-60
2023/10/04 04:27:51;;;;;;;2.13;1.47;;;;;;;;;;5090572;28;20575;-59
2023/10/04 04:30:28;;;;;;;1.73;1.00;;;;;;;;;;5090692;28;20024;-59
2023/10/04 04:32:58;;;;;;;0.70;0.53;;;;;;;;;;5095632;28;20028;-59
2023/10/04 04:37:56;;;;;;;1.30;0.80;;;;;;;;;;5091389;28;20033;-60
2023/10/04 04:40:30;;;;;;;1.40;0.67;;;;;;;;;;5075315;28;20118;-59
2023/10/04 04:43:17;;;;;;;0.73;0.50;;;;;;;;;;5086863;28;20089;-59
2023/10/04 04:45:53;;;;;;;0.77;0.60;;;;;;;;;;5090119;28;20028;-59
2023/10/04 04:48:35;;;;;;;1.27;0.73;;;;;;;;;;5090201;28;20115;-59
2023/10/04 04:51:07;;;;;;;0.83;0.60;;;;;;;;;;5089600;28;20036;-59
2023/10/04 04:53:33;;;;;;;0.70;0.53;;;;;;;;;;5090423;28;20115;-58
2023/10/04 04:56:03;;;;;;;2.27;1.00;;;;;;;;;;5094409;28;20103;-59
2023/10/04 04:58:31;;;;;;;2.30;1.13;;;;;;;;;;5094242;28;20028;-59
2023/10/04 05:01:02;;;;;;;1.40;0.70;;;;;;;;;;5094441;28;20024;-59
2023/10/04 05:03:29;;;;;;;1.60;0.93;;;;;;;;;;5094680;28;20028;-58
2023/10/04 05:05:56;;;;;;;0.80;0.70;;;;;;;;;;5093359;28;20035;-59
2023/10/04 05:08:25;;;;;;;0.90;0.67;;;;;;;;;;5089464;28;20446;-58
2023/10/04 05:10:54;;;;;;;2.67;1.00;;;;;;;;;;5076236;28;20028;-60
2023/10/04 05:13:21;;;;;;;2.57;1.40;;;;;;;;;;5068077;28;20661;-60
2023/10/04 05:15:49;;;;;;;1.50;0.87;;;;;;;;;;5069735;28;20021;-60
2023/10/04 05:18:17;;;;;;;1.23;0.83;;;;;;;;;;5073123;28;20448;-60
2023/10/04 05:20:53;;;;;;;0.20;0.20;;;;;;;;;;5087006;28;20378;-60
2023/10/04 05:23:21;;;;;;;0.70;0.47;;;;;;;;;;5093178;28;20024;-60
2023/10/04 05:25:48;;;;;;;1.80;0.93;;;;;;;;;;5093173;28;20024;-61
2023/10/04 05:28:15;;;;;;;1.33;0.77;;;;;;;;;;5091799;28;20514;-60
2023/10/04 05:30:43;;;;;;;1.03;0.73;;;;;;;;;;5087579;28;20550;-60
2023/10/04 05:33:10;;;;;;;1.63;1.03;;;;;;;;;;5087637;28;20039;-60
2023/10/04 05:35:37;;;;;;;1.97;0.93;;;;;;;;;;5087574;28;20043;-60
2023/10/04 05:38:05;;;;;;;5.20;1.77;;;;;;;;;;5088025;28;20075;-60
2023/10/04 05:40:36;;;;;;;2.93;1.57;;;;;;;;;;5092784;28;20032;-60
2023/10/04 05:43:03;;;;;;;10.17;1.90;;;;;;;;;;5092997;28;20484;-61
2023/10/04 05:45:31;;;;;;;1.70;1.20;;;;;;;;;;5092697;28;20024;-60
2023/10/04 05:47:59;;;;;;;1.80;0.73;;;;;;;;;;5092968;28;20025;-60
2023/10/04 05:50:26;;;;;;;1.13;0.60;;;;;;;;;;5092235;28;20024;-60
2023/10/04 05:52:54;;;;;;;3.10;1.37;;;;;;;;;;5087677;28;20039;-60
2023/10/04 05:55:21;;;;;;;1.00;0.77;;;;;;;;;;5087635;28;20552;-60
2023/10/04 05:57:52;;;;;;;2.07;1.20;;;;;;;;;;5086499;28;20036;-60
2023/10/04 06:02:50;;;;;;;3.03;1.40;;;;;;;;;;5092619;28;20035;-60
2023/10/04 06:05:19;;;;;;;3.80;1.83;;;;;;;;;;5092484;28;20494;-61
2023/10/04 06:07:46;;;;;;;1.93;1.10;;;;;;;;;;5092148;28;20502;-60
2023/10/04 06:10:14;;;;;;;11.67;1.67;;;;;;;;;;5092243;28;20467;-60
2023/10/04 06:12:40;;;;;;;3.77;1.63;;;;;;;;;;5092220;28;20108;-61
2023/10/04 06:15:13;;;;;;;3.87;1.77;;;;;;;;;;5087006;28;20028;-60
2023/10/04 06:17:42;;;;;;;2.03;1.20;;;;;;;;;;5086996;28;20406;-61
2023/10/04 06:20:23;;;;;;;2.67;1.50;;;;;;;;;;5086827;28;20040;-60
2023/10/04 06:22:51;;;;;;;17.87;2.17;;;;;;;;;;5086717;28;20783;-60
2023/10/04 06:25:18;;;;;;;1.33;1.07;;;;;;;;;;5092084;28;20024;-60
2023/10/04 06:27:44;;;;;;;2.27;1.07;;;;;;;;;;5092198;28;20036;-60
2023/10/04 06:30:17;;;;;;;2.23;1.47;;;;;;;;;;5091848;28;20421;-60
2023/10/04 06:32:43;;;;;;;3.27;1.93;;;;;;;;;;5091887;28;20040;-60
2023/10/04 06:35:11;;;;;;;6.40;1.70;;;;;;;;;;5092079;28;20016;-60
2023/10/04 06:37:37;;;;;;;1.27;1.00;;;;;;;;;;5086602;28;20040;-60
2023/10/04 06:40:11;;;;;;;4.87;1.53;;;;;;;;;;5086825;28;20026;-60
2023/10/04 06:42:38;;;;;;;1.47;1.03;;;;;;;;;;5086525;28;20035;-60
2023/10/04 06:45:06;;;;;;;3.13;1.60;;;;;;;;;;5086302;28;20032;-60
2023/10/04 06:47:34;;;;;;;3.30;1.90;;;;;;;;;;5091231;28;20103;-60
2023/10/04 06:50:02;;;;;;;6.73;1.43;;;;;;;;;;5091607;28;20028;-60
2023/10/04 06:52:29;;;;;;;4.00;1.20;;;;;;;;;;5088793;28;20153;-60
2023/10/04 06:54:55;;;;;;;1.97;1.33;;;;;;;;;;5091782;28;20494;-60
2023/10/04 06:57:22;;;;;;;3.10;1.90;;;;;;;;;;5091543;28;20047;-60
2023/10/04 06:59:49;;;;;;;3.70;1.73;;;;;;;;;;5086979;28;20024;-60
2023/10/04 07:02:16;;;;;;;2.10;1.37;;;;;;;;;;5086270;28;20111;-60
2023/10/04 07:04:43;;;;;;;1.87;1.20;;;;;;;;;;5086395;28;20024;-60
2023/10/04 07:07:10;;;;;;;2.00;1.60;;;;;;;;;;5085866;28;20032;-60
2023/10/04 07:09:37;;;;;;;1.30;1.03;;;;;;;;;;5089633;28;20055;-59
2023/10/04 07:12:04;;;;;;;2.03;1.40;;;;;;;;;;5091424;28;20050;-60
2023/10/04 07:14:30;;;;;;;1.50;1.20;;;;;;;;;;5092447;28;20024;-60
2023/10/04 07:16:57;;;;;;;1.90;1.23;;;;;;;;;;5092602;28;20092;-60
2023/10/04 07:19:24;;;;;;;1.80;1.17;;;;;;;;;;5092587;28;20077;-60
2023/10/04 07:21:50;;;;;;;1.30;1.03;;;;;;;;;;5089001;28;20148;-60
2023/10/04 07:24:17;;;;;;;0.80;0.70;;;;;;;;;;5087384;28;20077;-60
2023/10/04 07:26:45;;;;;;;2.10;1.40;;;;;;;;;;5086951;28;20021;-60
2023/10/04 07:29:12;;;;;;;2.83;1.50;;;;;;;;;;5087331;28;20032;-60
2023/10/04 07:31:39;;;;;;;1.67;1.17;;;;;;;;;;5090148;28;20502;-60
2023/10/04 07:34:06;;;;;;;1.40;1.17;;;;;;;;;;5092641;28;20028;-60
2023/10/04 07:36:33;;;;;;;2.30;1.57;;;;;;;;;;5092712;28;20028;-60
2023/10/04 07:38:59;;;;;;;2.47;1.70;;;;;;;;;;5092475;28;20032;-61
2023/10/04 07:41:28;;;;;;;4.07;1.13;;;;;;;;;;5092613;28;20487;-60
2023/10/04 07:43:55;;;;;;;2.00;1.37;;;;;;;;;;5089953;28;20077;-60
2023/10/04 07:46:21;;;;;;;0.80;0.77;;;;;;;;;;5086637;28;20025;-61
2023/10/04 07:48:48;;;;;;;1.37;1.20;;;;;;;;;;5087013;28;20084;-60
2023/10/04 07:51:15;;;;;;;2.70;1.23;;;;;;;;;;5087235;28;20049;-60
2023/10/04 07:53:42;;;;;;;8.10;2.00;;;;;;;;;;5088864;28;20025;-60
2023/10/04 07:56:11;;;;;;;1.20;1.00;;;;;;;;;;5092156;28;20375;-60
2023/10/04 07:58:37;;;;;;;3.53;1.80;;;;;;;;;;5092332;28;20043;-60
2023/10/04 08:01:04;;;;;;;3.23;2.13;;;;;;;;;;5092506;28;20033;-60
2023/10/04 08:03:32;;;;;;;1.60;1.30;;;;;;;;;;5092751;28;20032;-60
2023/10/04 08:05:58;;;;;;;1.77;1.40;;;;;;;;;;5090164;28;20036;-60
2023/10/04 08:08:25;;;;;;;1.97;1.57;;;;;;;;;;5087062;28;20059;-60
2023/10/04 08:10:53;;;;;;;2.23;1.50;;;;;;;;;;5086908;28;20616;-60
2023/10/04 08:13:21;;;;;;;2.03;1.33;;;;;;;;;;5086950;28;20088;-60
2023/10/04 08:15:48;;;;;;;13.90;1.80;;;;;;;;;;5087662;28;20039;-60
2023/10/04 08:18:16;;;;;;;2.33;1.60;;;;;;;;;;5092132;28;20043;-60
2023/10/04 08:20:43;;;;;;;1.63;1.33;;;;;;;;;;5092218;28;20028;-59
2023/10/04 08:23:10;;;;;;;6.30;1.50;;;;;;;;;;5095326;28;20470;-60
2023/10/04 08:25:37;;;;;;;2.30;1.40;;;;;;;;;;5095976;28;20032;-59
2023/10/04 08:28:09;;;;;;;2.27;1.60;;;;;;;;;;5094434;28;20471;-59
2023/10/04 08:30:38;;;;;;;1.53;1.10;;;;;;;;;;5090355;28;20035;-59
2023/10/04 08:33:05;;;;;;;2.70;1.97;;;;;;;;;;5090145;28;20028;-60
2023/10/04 08:35:36;;;;;;;3.33;2.43;;;;;;;;;;5090416;28;20089;-59
2023/10/04 08:38:06;;;;;;;2.93;2.10;;;;;;;;;;5090418;28;20487;-60
2023/10/04 08:40:38;;;;;;;3.03;1.60;;;;;;;;;;5095142;28;20032;-59
2023/10/04 08:43:05;;;;;;;2.73;1.90;;;;;;;;;;5095319;28;20103;-60
2023/10/04 08:45:35;;;;;;;1.77;1.33;;;;;;;;;;5095467;28;20107;-59
2023/10/04 08:48:02;;;;;;;1.23;1.13;;;;;;;;;;5095517;28;20024;-60
2023/10/04 08:50:29;;;;;;;2.03;1.53;;;;;;;;;;5094185;28;20028;-60
2023/10/04 08:53:03;;;;;;;2.50;1.50;;;;;;;;;;5089771;28;20067;-60
2023/10/04 08:55:34;;;;;;;1.80;1.30;;;;;;;;;;5089958;28;20052;-59
2023/10/04 08:58:01;;;;;;;2.23;1.60;;;;;;;;;;5089991;28;20538;-60
2023/10/04 09:00:29;;;;;;;2.37;1.80;;;;;;;;;;5090051;28;20034;-60
2023/10/04 09:02:56;;;;;;;2.17;1.77;;;;;;;;;;5095098;28;20046;-60
2023/10/04 09:05:23;;;;;;;6.03;2.23;;;;;;;;;;5095237;28;20035;-60
2023/10/04 09:07:54;;;;;;;2.40;1.43;;;;;;;;;;5094985;28;20371;-61
2023/10/04 09:10:21;;;;;;;1.93;1.23;;;;;;;;;;5094622;28;20026;-59
2023/10/04 09:12:48;;;;;;;5.03;2.27;;;;;;;;;;5094110;28;20024;-60
2023/10/04 09:15:15;;;;;;;3.67;1.90;;;;;;;;;;5089429;28;20024;-59
2023/10/04 09:17:46;;;;;;;2.40;1.70;;;;;;;;;;5089298;28;20028;-60
2023/10/04 09:20:16;;;;;;;2.53;1.67;;;;;;;;;;5088815;28;20031;-59
2023/10/04 09:22:44;;;;;;;3.77;2.07;;;;;;;;;;5089271;28;20103;-61
2023/10/04 09:25:15;;;;;;;3.57;1.53;;;;;;;;;;5094451;28;20028;-60
2023/10/04 09:27:54;;;;;;;2.30;1.57;;;;;;;;;;5094877;28;20025;-59
2023/10/04 09:30:21;;;;;;;4.53;1.83;;;;;;;;;;5094360;28;20050;-60
2023/10/04 09:32:49;;;;;;;1.37;1.07;;;;;;;;;;5094379;28;20047;-60
2023/10/04 09:35:18;;;;;;;1.97;1.37;;;;;;;;;;5093689;28;20032;-61
2023/10/04 09:37:45;;;;;;;2.23;1.47;;;;;;;;;;5089007;28;20045;-60
2023/10/04 09:40:15;;;;;;;1.40;0.87;;;;;;;;;;5088671;28;20036;-60
2023/10/04 09:42:46;;;;;;;2.37;1.57;;;;;;;;;;5088572;28;20039;-60
2023/10/04 09:45:13;;;;;;;2.30;1.60;;;;;;;;;;5089182;28;20031;-60
2023/10/04 09:47:39;;;;;;;1.17;1.00;;;;;;;;;;5094307;28;20027;-60
2023/10/04 09:50:21;;;;;;;2.77;1.67;;;;;;;;;;5093849;28;20103;-60
2023/10/04 09:52:48;;;;;;;2.30;1.43;;;;;;;;;;5093700;28;20417;-60
2023/10/04 09:55:15;;;;;;;1.77;1.43;;;;;;;;;;5094102;28;20028;-60
2023/10/04 09:57:43;;;;;;;1.73;1.37;;;;;;;;;;5093799;28;20429;-59
2023/10/04 10:00:17;;;;;;;2.67;1.77;;;;;;;;;;5088248;28;20024;-60
2023/10/04 10:02:49;;;;;;;4.38;2.05;;;;;;;;;;5087361;28;20089;-59
2023/10/04 10:05:29;;;;;;;2.47;1.40;;;;;;;;;;5088726;28;20035;-60
2023/10/04 10:08:04;;;;;;;1.97;1.17;;;;;;;;;;5088984;28;20543;-60
2023/10/04 10:10:34;;;;;;;2.20;1.80;;;;;;;;;;5093489;28;20711;-59
2023/10/04 10:13:01;;;;;;;3.47;1.93;;;;;;;;;;5093820;28;20048;-60
2023/10/04 10:15:28;;;;;;;3.97;1.97;;;;;;;;;;5093568;28;20105;-59
2023/10/04 10:17:55;;;;;;;6.27;2.60;;;;;;;;;;5093545;28;20060;-59
2023/10/04 10:20:21;;;;;;;1.80;1.50;;;;;;;;;;5092490;28;20027;-59
2023/10/04 10:23:00;;;;;;;2.90;1.50;;;;;;;;;;5088178;28;20023;-59
2023/10/04 10:25:29;;;;;;;1.27;1.10;;;;;;;;;;5088326;28;20396;-59
2023/10/04 10:27:59;;;;;;;1.77;1.23;;;;;;;;;;5087934;28;20548;-59
2023/10/04 10:30:25;;;;;;;2.50;1.70;;;;;;;;;;5088221;28;20095;-59
2023/10/04 10:32:56;;;;;;;2.23;1.30;;;;;;;;;;5093394;28;20032;-59
2023/10/04 10:35:43;;;;;;;3.00;2.13;;;;;;;;;;5093531;28;20050;-59
2023/10/04 10:38:30;;;;;;;1.97;1.23;;;;;;;;;;5089237;28;20509;-59
2023/10/04 10:40:57;;;;;;;2.97;1.23;;;;;;;;;;5092608;28;20102;-60
2023/10/04 10:43:23;;;;;;;3.43;1.17;;;;;;;;;;5089688;28;20496;-60
2023/10/04 10:45:50;;;;;;;1.87;1.30;;;;;;;;;;5086071;28;20016;-59
2023/10/04 10:48:17;;;;;;;2.33;1.77;;;;;;;;;;5087748;28;20506;-59
2023/10/04 10:50:44;;;;;;;1.53;1.20;;;;;;;;;;5087560;28;20016;-60
2023/10/04 10:53:11;;;;;;;4.10;2.00;;;;;;;;;;5089150;28;20028;-59
2023/10/04 10:55:41;;;;;;;1.17;0.93;;;;;;;;;;5093272;28;20352;-59
2023/10/04 10:58:08;;;;;;;0.67;0.63;;;;;;;;;;5092629;28;20035;-59
2023/10/04 11:00:35;;;;;;;2.23;1.50;;;;;;;;;;5093133;28;20055;-59
2023/10/04 11:03:06;;;;;;;1.87;1.43;;;;;;;;;;5092738;28;20036;-59
2023/10/04 11:05:33;;;;;;;1.90;1.37;;;;;;;;;;5090889;28;20482;-59
2023/10/04 11:08:01;;;;;;;1.60;1.33;;;;;;;;;;5088010;28;20378;-59
2023/10/04 11:10:32;;;;;;;2.40;1.60;;;;;;;;;;5087524;28;20065;-59
2023/10/04 11:13:03;;;;;;;3.80;1.37;;;;;;;;;;5087632;28;20028;-59
2023/10/04 11:15:29;;;;;;;1.40;1.07;;;;;;;;;;5088109;28;20107;-59
2023/10/04 11:17:56;;;;;;;11.33;1.47;;;;;;;;;;5092865;28;20028;-59
2023/10/04 11:20:23;;;;;;;6.67;1.97;;;;;;;;;;5092750;28;20016;-59
2023/10/04 11:22:50;;;;;;;15.83;2.70;;;;;;;;;;5092711;28;20048;-59
2023/10/04 11:25:18;;;;;;;2.97;2.03;;;;;;;;;;5092500;28;20405;-59
2023/10/04 11:27:48;;;;;;;1.17;1.03;;;;;;;;;;5091579;28;20035;-59
2023/10/04 11:30:33;;;;;;;1.67;1.17;;;;;;;;;;5087428;28;20022;-59
2023/10/04 11:33:02;;;;;;;1.37;1.00;;;;;;;;;;5085099;28;20032;-60
2023/10/04 11:35:37;;;;;;;1.47;1.10;;;;;;;;;;5087195;28;20036;-59
2023/10/04 11:38:13;;;;;;;2.55;1.42;;;;;;;;;;5087540;28;20040;-58
2023/10/04 11:40:40;;;;;;;2.20;1.50;;;;;;;;;;5091311;28;20078;-59
2023/10/04 11:43:08;;;;;;;3.33;1.40;;;;;;;;;;5091866;28;20032;-58
2023/10/04 11:45:36;;;;;;;2.77;1.70;;;;;;;;;;5091654;28;20391;-59
2023/10/04 11:48:08;;;;;;;2.70;1.30;;;;;;;;;;5091811;28;20036;-59
2023/10/04 11:50:56;;;;;;;4.87;1.47;;;;;;;;;;5069620;28;20128;-59
2023/10/04 11:53:38;;;;;;;2.30;1.70;;;;;;;;;;5066170;28;20082;-58
2023/10/04 11:56:10;;;;;;;6.77;1.20;;;;;;;;;;5065261;28;20025;-58
2023/10/04 11:58:45;;;;;;;3.33;1.57;;;;;;;;;;5069788;28;20064;-59
2023/10/04 12:01:15;;;;;;;2.57;1.57;;;;;;;;;;5082935;28;20101;-59
2023/10/04 12:03:42;;;;;;;2.10;1.57;;;;;;;;;;5095443;28;20016;-59
2023/10/04 12:06:09;;;;;;;3.57;1.87;;;;;;;;;;5095459;28;20559;-59
2023/10/04 12:08:39;;;;;;;3.70;1.70;;;;;;;;;;5095090;28;20376;-59
2023/10/04 12:11:13;;;;;;;0.97;0.80;;;;;;;;;;5095253;28;20043;-59
2023/10/04 12:13:45;;;;;;;2.47;1.83;;;;;;;;;;5092066;28;20088;-59
2023/10/04 12:16:13;;;;;;;4.33;1.90;;;;;;;;;;5089220;28;20032;-59
2023/10/04 12:18:39;;;;;;;3.20;1.83;;;;;;;;;;5089162;28;20044;-59
2023/10/04 12:21:06;;;;;;;4.20;1.77;;;;;;;;;;5089742;28;20490;-59
2023/10/04 12:23:33;;;;;;;2.13;1.33;;;;;;;;;;5091642;28;20487;-59
2023/10/04 12:26:00;;;;;;;2.27;1.53;;;;;;;;;;5095090;28;20042;-59
2023/10/04 12:28:30;;;;;;;2.90;1.77;;;;;;;;;;5094937;28;20347;-59
2023/10/04 12:31:07;;;;;;;3.47;2.30;;;;;;;;;;5094897;28;20020;-59
2023/10/04 12:33:34;;;;;;;3.50;2.30;;;;;;;;;;5094658;28;20032;-59
2023/10/04 12:36:02;;;;;;;4.40;2.00;;;;;;;;;;5092293;28;20051;-60
2023/10/04 12:38:29;;;;;;;2.70;1.80;;;;;;;;;;5089000;28;20077;-58
2023/10/04 12:40:55;;;;;;;5.17;1.97;;;;;;;;;;5089098;28;20547;-59
2023/10/04 12:43:24;;;;;;;15.27;2.50;;;;;;;;;;5089312;28;20042;-59
2023/10/04 12:45:54;;;;;;;5.33;2.80;;;;;;;;;;5090915;28;20031;-59
2023/10/04 12:48:21;;;;;;;4.30;2.40;;;;;;;;;;5094415;28;20024;-59
2023/10/04 12:50:48;;;;;;;13.23;5.13;;;;;;;;;;5094602;28;20028;-59
2023/10/04 12:53:16;;;;;;;5.90;4.07;;;;;;;;;;5094500;28;20016;-59
2023/10/04 12:55:42;;;;;;;19.27;6.80;;;;;;;;;;5094585;28;20028;-59
2023/10/04 12:58:09;;;;;;;13.63;8.10;;;;;;;;;;5091871;28;20386;-59
2023/10/04 13:00:36;;;;;;;13.03;6.47;;;;;;;;;;5088825;28;20032;-59
2023/10/04 13:03:03;;;;;;;7.73;3.67;;;;;;;;;;5088502;28;20032;-59
2023/10/04 13:05:30;;;;;;;9.30;5.53;;;;;;;;;;5088625;28;20024;-59
2023/10/04 13:07:57;;;;;;;6.53;3.97;;;;;;;;;;5089516;28;20027;-59
2023/10/04 13:10:24;;;;;;;5.67;2.83;;;;;;;;;;5093733;28;20028;-59
2023/10/04 13:12:51;;;;;;;4.43;3.03;;;;;;;;;;5094221;28;20035;-59
2023/10/04 13:15:17;;;;;;;3.73;2.43;;;;;;;;;;5094085;28;20028;-59
2023/10/04 13:17:44;;;;;;;3.83;2.30;;;;;;;;;;5093727;28;20024;-59
2023/10/04 13:20:17;;;;;;;3.10;2.10;;;;;;;;;;5092761;28;20019;-59
2023/10/04 13:22:47;;;;;;;3.57;2.47;;;;;;;;;;5088101;28;20032;-59
2023/10/04 13:25:13;;;;;;;3.00;2.20;;;;;;;;;;5088515;28;20020;-59
2023/10/04 13:27:40;;;;;;;4.17;2.90;;;;;;;;;;5088144;28;20024;-59
2023/10/04 13:30:07;;;;;;;4.00;2.70;;;;;;;;;;5088554;28;20032;-60
2023/10/04 13:32:35;;;;;;;3.57;2.03;;;;;;;;;;5093742;28;20382;-59
2023/10/04 13:35:01;;;;;;;8.50;1.60;;;;;;;;;;5093688;28;20516;-59
2023/10/04 13:37:28;;;;;;;3.00;2.27;;;;;;;;;;5093122;28;20084;-59
2023/10/04 13:39:55;;;;;;;5.00;3.10;;;;;;;;;;5093165;28;20509;-59
2023/10/04 13:42:22;;;;;;;4.67;2.63;;;;;;;;;;5092869;28;20487;-60
2023/10/04 13:44:49;;;;;;;6.27;3.23;;;;;;;;;;5087740;28;20035;-59
2023/10/04 13:47:16;;;;;;;3.57;2.57;;;;;;;;;;5087813;28;20223;-59
2023/10/04 13:49:42;;;;;;;4.17;2.83;;;;;;;;;;5088099;28;20483;-59
2023/10/04 13:52:10;;;;;;;6.70;4.50;;;;;;;;;;5087526;28;20120;-60
2023/10/04 13:54:40;;;;;;;5.17;3.93;;;;;;;;;;5092855;28;20056;-59
2023/10/04 13:57:07;;;;;;;7.67;5.47;;;;;;;;;;5093131;28;20043;-60
2023/10/04 13:59:34;;;;;;;4.87;4.03;;;;;;;;;;5093315;28;20032;-60
2023/10/04 14:02:05;;;;;;;4.93;3.40;;;;;;;;;;5093020;28;20044;-60
2023/10/04 14:04:32;;;;;;;11.17;3.97;;;;;;;;;;5092791;28;20039;-60
2023/10/04 14:06:59;;;;;;;21.80;5.63;;;;;;;;;;5087444;28;20028;-60
2023/10/04 14:09:25;;;;;;;6.20;4.83;;;;;;;;;;5087533;28;20132;-60
2023/10/04 14:11:52;;;;;;;7.17;4.53;;;;;;;;;;5087066;28;20553;-60
2023/10/04 14:14:19;;;;;;;7.33;5.50;;;;;;;;;;5087189;28;20024;-60
2023/10/04 14:16:49;;;;;;;7.27;4.70;;;;;;;;;;5092053;28;20028;-60
2023/10/04 14:19:15;;;;;;;7.00;3.27;;;;;;;;;;5092112;28;20060;-60
2023/10/04 14:21:42;;;;;;;5.10;3.13;;;;;;;;;;5092707;28;20383;-60
2023/10/04 14:24:09;;;;;;;6.97;4.30;;;;;;;;;;5092945;28;20020;-60
2023/10/04 14:26:37;;;;;;;6.53;4.00;;;;;;;;;;5092456;28;20043;-60
2023/10/04 14:29:04;;;;;;;15.47;4.40;;;;;;;;;;5087348;28;20024;-60
2023/10/04 14:31:31;;;;;;;8.20;3.17;;;;;;;;;;5086953;28;20032;-60
2023/10/04 14:33:58;;;;;;;4.17;3.13;;;;;;;;;;5087245;28;20526;-60
2023/10/04 14:36:26;;;;;;;3.80;2.57;;;;;;;;;;5086722;28;20036;-60
2023/10/04 14:38:53;;;;;;;6.83;4.37;;;;;;;;;;5090936;28;20040;-60
2023/10/04 14:41:20;;;;;;;3.87;2.73;;;;;;;;;;5092664;28;20028;-60
2023/10/04 14:43:47;;;;;;;9.10;3.37;;;;;;;;;;5092463;28;20028;-60
2023/10/04 14:46:13;;;;;;;2.47;1.83;;;;;;;;;;5092063;28;20027;-60
2023/10/04 14:48:40;;;;;;;2.60;1.43;;;;;;;;;;5091959;28;20028;-60
2023/10/04 14:51:07;;;;;;;3.00;1.63;;;;;;;;;;5088690;28;20063;-60
2023/10/04 14:53:34;;;;;;;2.83;1.73;;;;;;;;;;5086855;28;20026;-59
2023/10/04 14:56:00;;;;;;;4.40;2.33;;;;;;;;;;5086623;28;20035;-60
2023/10/04 14:58:32;;;;;;;1.60;1.23;;;;;;;;;;5086697;28;20039;-60